sensor_id;sensor_type;location;lat;lon;timestamp;pressure;altitude;pressure_sealevel;temperature;humidity
42887;BME280;29032;56.028;92.904;2023-10-08T00:04:00;99982.38;;;8.84;51.73
42887;BME280;29032;56.028;92.904;2023-10-08T00:09:04;99971.09;;;8.87;51.42
42887;BME280;29032;56.028;92.904;2023-10-08T00:14:07;99983.66;;;8.83;51.56
42887;BME280;29032;56.028;92.904;2023-10-08T00:19:09;99989.69;;;8.81;50.89
42887;BME280;29032;56.028;92.904;2023-10-08T00:24:12;99995.44;;;8.78;51.04
42887;BME280;29032;56.028;92.904;2023-10-08T00:29:15;99984.31;;;8.67;51.35
42887;BME280;29032;56.028;92.904;2023-10-08T00:34:17;99995.59;;;8.63;51.39
42887;BME280;29032;56.028;92.904;2023-10-08T00:39:20;100001.88;;;8.63;51.84
42887;BME280;29032;56.028;92.904;2023-10-08T00:44:22;99992.78;;;8.57;51.78
42887;BME280;29032;56.028;92.904;2023-10-08T00:49:25;99999.88;;;8.58;51.88
42887;BME280;29032;56.028;92.904;2023-10-08T00:54:30;100001.84;;;8.58;52.49
42887;BME280;29032;56.028;92.904;2023-10-08T00:59:35;99996.56;;;8.54;52.46
42887;BME280;29032;56.028;92.904;2023-10-08T01:04:37;100006.63;;;8.57;52.37
42887;BME280;29032;56.028;92.904;2023-10-08T01:09:42;100000.16;;;8.72;52.78
42887;BME280;29032;56.028;92.904;2023-10-08T01:14:44;99995.91;;;8.71;52.95
42887;BME280;29032;56.028;92.904;2023-10-08T01:19:46;99997.69;;;8.79;52.65
42887;BME280;29032;56.028;92.904;2023-10-08T01:24:50;99993.00;;;8.91;53.20
42887;BME280;29032;56.028;92.904;2023-10-08T01:29:52;99994.25;;;8.90;53.04
42887;BME280;29032;56.028;92.904;2023-10-08T01:34:54;100000.06;;;8.98;53.02
42887;BME280;29032;56.028;92.904;2023-10-08T01:39:58;100006.94;;;9.08;53.08
42887;BME280;29032;56.028;92.904;2023-10-08T01:45:00;99998.13;;;9.09;53.32
42887;BME280;29032;56.028;92.904;2023-10-08T01:50:02;100009.22;;;9.15;53.32
42887;BME280;29032;56.028;92.904;2023-10-08T01:55:06;100006.94;;;9.13;53.61
42887;BME280;29032;56.028;92.904;2023-10-08T02:00:10;100006.16;;;9.07;53.88
42887;BME280;29032;56.028;92.904;2023-10-08T02:05:13;99994.81;;;9.05;53.59
42887;BME280;29032;56.028;92.904;2023-10-08T02:10:17;100005.66;;;9.14;53.84
42887;BME280;29032;56.028;92.904;2023-10-08T02:15:19;100007.69;;;9.14;53.69
42887;BME280;29032;56.028;92.904;2023-10-08T02:20:21;100004.00;;;9.23;53.87
42887;BME280;29032;56.028;92.904;2023-10-08T02:25:25;100007.03;;;9.36;53.33
42887;BME280;29032;56.028;92.904;2023-10-08T02:30:27;99999.78;;;9.44;53.15
42887;BME280;29032;56.028;92.904;2023-10-08T02:35:29;99996.00;;;9.47;53.15
42887;BME280;29032;56.028;92.904;2023-10-08T02:40:32;100000.09;;;9.57;53.49
42887;BME280;29032;56.028;92.904;2023-10-08T02:45:34;100001.84;;;9.60;53.49
42887;BME280;29032;56.028;92.904;2023-10-08T02:50:37;100000.34;;;9.70;53.57
42887;BME280;29032;56.028;92.904;2023-10-08T02:55:41;99996.34;;;9.83;53.64
42887;BME280;29032;56.028;92.904;2023-10-08T03:00:44;99991.81;;;9.80;53.45
42887;BME280;29032;56.028;92.904;2023-10-08T03:05:47;99987.28;;;9.88;53.21
42887;BME280;29032;56.028;92.904;2023-10-08T03:10:52;99981.22;;;10.06;52.82
42887;BME280;29032;56.028;92.904;2023-10-08T03:15:54;99984.75;;;10.12;52.67
42887;BME280;29032;56.028;92.904;2023-10-08T03:20:56;99980.22;;;10.20;52.29
42887;BME280;29032;56.028;92.904;2023-10-08T03:26:01;99977.16;;;10.41;51.89
42887;BME280;29032;56.028;92.904;2023-10-08T03:31:03;99976.16;;;10.44;51.43
42887;BME280;29032;56.028;92.904;2023-10-08T03:36:07;99970.34;;;10.59;51.52
42887;BME280;29032;56.028;92.904;2023-10-08T03:41:11;99965.53;;;10.70;51.00
42887;BME280;29032;56.028;92.904;2023-10-08T03:46:13;99958.19;;;10.78;51.07
42887;BME280;29032;56.028;92.904;2023-10-08T03:51:15;99948.56;;;10.91;51.91
42887;BME280;29032;56.028;92.904;2023-10-08T03:56:18;99942.66;;;11.11;50.83
42887;BME280;29032;56.028;92.904;2023-10-08T04:01:21;99931.50;;;11.22;50.73
42887;BME280;29032;56.028;92.904;2023-10-08T04:06:24;99940.03;;;11.35;50.73
42887;BME280;29032;56.028;92.904;2023-10-08T04:11:28;99944.25;;;11.48;51.48
42887;BME280;29032;56.028;92.904;2023-10-08T04:16:31;99932.31;;;11.53;50.73
42887;BME280;29032;56.028;92.904;2023-10-08T04:21:33;99938.56;;;11.64;49.46
42887;BME280;29032;56.028;92.904;2023-10-08T04:26:37;99935.66;;;11.81;49.25
42887;BME280;29032;56.028;92.904;2023-10-08T04:31:39;99936.59;;;11.89;50.82
42887;BME280;29032;56.028;92.904;2023-10-08T04:36:41;99925.88;;;12.05;48.98
42887;BME280;29032;56.028;92.904;2023-10-08T04:41:45;99933.34;;;12.21;49.59
42887;BME280;29032;56.028;92.904;2023-10-08T04:46:47;99931.50;;;12.29;48.15
42887;BME280;29032;56.028;92.904;2023-10-08T04:51:49;99920.25;;;12.40;47.88
42887;BME280;29032;56.028;92.904;2023-10-08T04:56:52;99927.91;;;12.59;48.35
42887;BME280;29032;56.028;92.904;2023-10-08T05:01:55;99927.09;;;12.64;47.71
42887;BME280;29032;56.028;92.904;2023-10-08T05:06:56;99924.41;;;12.77;47.25
42887;BME280;29032;56.028;92.904;2023-10-08T05:12:00;99925.03;;;12.89;47.61
42887;BME280;29032;56.028;92.904;2023-10-08T05:17:04;99918.78;;;13.01;47.28
42887;BME280;29032;56.028;92.904;2023-10-08T05:22:07;99919.09;;;13.17;46.20
42887;BME280;29032;56.028;92.904;2023-10-08T05:27:11;99909.44;;;13.37;46.79
42887;BME280;29032;56.028;92.904;2023-10-08T05:32:13;99917.59;;;13.53;45.67
42887;BME280;29032;56.028;92.904;2023-10-08T05:37:15;99910.84;;;13.81;45.72
42887;BME280;29032;56.028;92.904;2023-10-08T05:42:19;99910.13;;;14.07;45.17
42887;BME280;29032;56.028;92.904;2023-10-08T05:47:21;99905.66;;;14.17;44.15
42887;BME280;29032;56.028;92.904;2023-10-08T05:52:23;99893.75;;;14.30;44.25
42887;BME280;29032;56.028;92.904;2023-10-08T05:57:26;99894.63;;;14.38;43.79
42887;BME280;29032;56.028;92.904;2023-10-08T06:02:29;99891.81;;;14.38;44.33
42887;BME280;29032;56.028;92.904;2023-10-08T06:07:32;99893.31;;;14.39;43.86
42887;BME280;29032;56.028;92.904;2023-10-08T06:12:35;99889.88;;;14.46;43.21
42887;BME280;29032;56.028;92.904;2023-10-08T06:17:37;99887.75;;;14.52;43.66
42887;BME280;29032;56.028;92.904;2023-10-08T06:22:39;99893.13;;;14.63;43.67
42887;BME280;29032;56.028;92.904;2023-10-08T06:27:43;99888.72;;;14.81;43.56
42887;BME280;29032;56.028;92.904;2023-10-08T06:32:45;99885.47;;;14.90;42.16
42887;BME280;29032;56.028;92.904;2023-10-08T06:37:47;99870.50;;;15.01;41.79
42887;BME280;29032;56.028;92.904;2023-10-08T06:42:50;99867.88;;;15.16;41.53
42887;BME280;29032;56.028;92.904;2023-10-08T06:47:52;99861.63;;;15.24;41.35
42887;BME280;29032;56.028;92.904;2023-10-08T06:52:55;99867.03;;;15.42;42.13
42887;BME280;29032;56.028;92.904;2023-10-08T06:57:58;99861.59;;;15.58;42.18
42887;BME280;29032;56.028;92.904;2023-10-08T07:03:00;99846.63;;;15.55;40.77
42887;BME280;29032;56.028;92.904;2023-10-08T07:08:03;99847.38;;;15.56;40.62
42887;BME280;29032;56.028;92.904;2023-10-08T07:13:07;99842.72;;;15.71;40.61
42887;BME280;29032;56.028;92.904;2023-10-08T07:18:08;99851.38;;;15.81;41.88
42887;BME280;29032;56.028;92.904;2023-10-08T07:23:11;99844.94;;;15.94;40.58
42887;BME280;29032;56.028;92.904;2023-10-08T07:28:14;99851.94;;;16.08;39.59
42887;BME280;29032;56.028;92.904;2023-10-08T07:33:16;99851.25;;;16.15;39.19
42887;BME280;29032;56.028;92.904;2023-10-08T07:38:18;99849.25;;;16.23;38.60
42887;BME280;29032;56.028;92.904;2023-10-08T07:43:22;99845.94;;;16.33;40.08
42887;BME280;29032;56.028;92.904;2023-10-08T07:48:24;99836.44;;;16.36;38.73
42887;BME280;29032;56.028;92.904;2023-10-08T07:53:26;99847.84;;;16.38;40.06
42887;BME280;29032;56.028;92.904;2023-10-08T07:58:29;99837.41;;;16.46;40.26
42887;BME280;29032;56.028;92.904;2023-10-08T08:03:32;99829.00;;;16.46;39.93
42887;BME280;29032;56.028;92.904;2023-10-08T08:08:34;99833.91;;;16.53;38.87
42887;BME280;29032;56.028;92.904;2023-10-08T08:13:39;99836.41;;;16.64;39.72
42887;BME280;29032;56.028;92.904;2023-10-08T08:18:41;99831.72;;;16.67;39.28
42887;BME280;29032;56.028;92.904;2023-10-08T08:23:44;99837.50;;;16.69;40.02
42887;BME280;29032;56.028;92.904;2023-10-08T08:28:47;99835.16;;;16.80;38.16
42887;BME280;29032;56.028;92.904;2023-10-08T08:33:50;99834.03;;;16.76;40.00
42887;BME280;29032;56.028;92.904;2023-10-08T08:38:52;99837.97;;;16.80;39.57
42887;BME280;29032;56.028;92.904;2023-10-08T08:43:55;99830.34;;;16.89;38.07
42887;BME280;29032;56.028;92.904;2023-10-08T08:49:00;99818.94;;;16.87;39.78
42887;BME280;29032;56.028;92.904;2023-10-08T08:54:04;99820.22;;;16.78;40.37
42887;BME280;29032;56.028;92.904;2023-10-08T08:59:08;99813.88;;;16.77;39.46
42887;BME280;29032;56.028;92.904;2023-10-08T09:04:10;99815.88;;;16.69;39.24
42887;BME280;29032;56.028;92.904;2023-10-08T09:09:12;99808.94;;;16.63;40.00
42887;BME280;29032;56.028;92.904;2023-10-08T09:14:15;99812.25;;;16.61;40.39
42887;BME280;29032;56.028;92.904;2023-10-08T09:19:18;99806.25;;;16.49;40.23
42887;BME280;29032;56.028;92.904;2023-10-08T09:24:20;99806.59;;;16.46;40.22
42887;BME280;29032;56.028;92.904;2023-10-08T09:29:26;99804.34;;;16.44;40.84
42887;BME280;29032;56.028;92.904;2023-10-08T09:34:29;99804.88;;;16.35;41.06
42887;BME280;29032;56.028;92.904;2023-10-08T09:39:32;99804.84;;;16.27;41.44
42887;BME280;29032;56.028;92.904;2023-10-08T09:44:35;99805.38;;;16.26;41.48
42887;BME280;29032;56.028;92.904;2023-10-08T09:49:40;99815.78;;;16.18;43.16
42887;BME280;29032;56.028;92.904;2023-10-08T09:54:43;99811.03;;;16.05;43.28
42887;BME280;29032;56.028;92.904;2023-10-08T09:59:48;99794.56;;;15.94;42.49
42887;BME280;29032;56.028;92.904;2023-10-08T10:04:51;99802.16;;;15.86;43.39
42887;BME280;29032;56.028;92.904;2023-10-08T10:09:54;99813.88;;;15.84;44.82
42887;BME280;29032;56.028;92.904;2023-10-08T10:14:58;99812.69;;;15.72;44.67
42887;BME280;29032;56.028;92.904;2023-10-08T10:20:01;99818.72;;;15.63;45.05
42887;BME280;29032;56.028;92.904;2023-10-08T10:25:05;99816.41;;;15.54;45.87
42887;BME280;29032;56.028;92.904;2023-10-08T10:30:09;99822.69;;;15.46;45.23
42887;BME280;29032;56.028;92.904;2023-10-08T10:35:14;99814.44;;;15.41;45.61
42887;BME280;29032;56.028;92.904;2023-10-08T10:40:19;99817.16;;;15.33;45.78
42887;BME280;29032;56.028;92.904;2023-10-08T10:45:23;99816.88;;;15.24;46.06
42887;BME280;29032;56.028;92.904;2023-10-08T10:50:26;99827.91;;;15.08;46.63
42887;BME280;29032;56.028;92.904;2023-10-08T10:55:29;99828.59;;;15.01;47.02
42887;BME280;29032;56.028;92.904;2023-10-08T11:00:32;99826.31;;;15.00;46.64
42887;BME280;29032;56.028;92.904;2023-10-08T11:05:34;99825.41;;;14.84;46.87
42887;BME280;29032;56.028;92.904;2023-10-08T11:10:38;99829.75;;;14.72;47.69
42887;BME280;29032;56.028;92.904;2023-10-08T11:15:42;99831.91;;;14.65;46.76
42887;BME280;29032;56.028;92.904;2023-10-08T11:20:45;99830.50;;;14.46;48.09
42887;BME280;29032;56.028;92.904;2023-10-08T11:25:53;99832.75;;;14.47;47.32
42887;BME280;29032;56.028;92.904;2023-10-08T11:30:57;99841.97;;;14.29;47.61
42887;BME280;29032;56.028;92.904;2023-10-08T11:36:01;99835.22;;;14.11;47.83
42887;BME280;29032;56.028;92.904;2023-10-08T11:41:10;99841.56;;;14.11;48.50
42887;BME280;29032;56.028;92.904;2023-10-08T11:46:14;99843.91;;;13.94;49.08
42887;BME280;29032;56.028;92.904;2023-10-08T11:51:16;99852.25;;;13.81;48.55
42887;BME280;29032;56.028;92.904;2023-10-08T11:56:18;99853.50;;;13.67;48.96
42887;BME280;29032;56.028;92.904;2023-10-08T12:01:22;99847.47;;;13.63;49.42
42887;BME280;29032;56.028;92.904;2023-10-08T12:06:25;99853.69;;;13.55;50.42
42887;BME280;29032;56.028;92.904;2023-10-08T12:11:28;99863.47;;;13.43;49.80
42887;BME280;29032;56.028;92.904;2023-10-08T12:16:31;99861.97;;;13.42;49.82
42887;BME280;29032;56.028;92.904;2023-10-08T12:21:34;99865.03;;;13.25;50.54
42887;BME280;29032;56.028;92.904;2023-10-08T12:26:36;99865.84;;;13.20;49.71
42887;BME280;29032;56.028;92.904;2023-10-08T12:31:39;99874.53;;;13.17;50.86
42887;BME280;29032;56.028;92.904;2023-10-08T12:36:41;99872.16;;;13.02;50.12
42887;BME280;29032;56.028;92.904;2023-10-08T12:41:44;99880.31;;;13.00;50.76
42887;BME280;29032;56.028;92.904;2023-10-08T12:46:48;99875.41;;;13.06;50.75
42887;BME280;29032;56.028;92.904;2023-10-08T12:51:50;99886.41;;;12.98;49.93
42887;BME280;29032;56.028;92.904;2023-10-08T12:56:52;99886.47;;;12.93;50.92
42887;BME280;29032;56.028;92.904;2023-10-08T13:01:55;99891.66;;;13.02;50.65
42887;BME280;29032;56.028;92.904;2023-10-08T13:06:58;99888.22;;;13.15;49.76
42887;BME280;29032;56.028;92.904;2023-10-08T13:12:00;99891.59;;;13.26;49.13
42887;BME280;29032;56.028;92.904;2023-10-08T13:17:04;99891.28;;;13.30;49.46
42887;BME280;29032;56.028;92.904;2023-10-08T13:22:06;99893.25;;;13.16;49.40
42887;BME280;29032;56.028;92.904;2023-10-08T13:27:08;99897.19;;;13.08;49.41
42887;BME280;29032;56.028;92.904;2023-10-08T13:32:11;99898.91;;;13.11;50.01
42887;BME280;29032;56.028;92.904;2023-10-08T13:37:14;99904.09;;;13.01;49.71
42887;BME280;29032;56.028;92.904;2023-10-08T13:42:16;99907.94;;;12.98;50.54
42887;BME280;29032;56.028;92.904;2023-10-08T13:47:19;99904.50;;;13.11;49.64
42887;BME280;29032;56.028;92.904;2023-10-08T13:52:21;99914.88;;;13.29;47.40
42887;BME280;29032;56.028;92.904;2023-10-08T13:57:23;99921.34;;;13.37;49.16
42887;BME280;29032;56.028;92.904;2023-10-08T14:02:27;99917.78;;;13.37;49.83
42887;BME280;29032;56.028;92.904;2023-10-08T14:07:29;99920.91;;;13.33;48.26
42887;BME280;29032;56.028;92.904;2023-10-08T14:12:31;99917.50;;;13.40;48.97
42887;BME280;29032;56.028;92.904;2023-10-08T14:17:35;99913.34;;;13.66;47.48
42887;BME280;29032;56.028;92.904;2023-10-08T14:22:37;99918.53;;;13.75;47.22
42887;BME280;29032;56.028;92.904;2023-10-08T14:27:39;99922.75;;;13.81;47.16
42887;BME280;29032;56.028;92.904;2023-10-08T14:32:43;99912.25;;;13.88;47.25
42887;BME280;29032;56.028;92.904;2023-10-08T14:37:45;99912.28;;;13.69;47.83
42887;BME280;29032;56.028;92.904;2023-10-08T14:42:47;99914.41;;;13.63;47.49
42887;BME280;29032;56.028;92.904;2023-10-08T14:47:50;99917.19;;;13.63;48.32
42887;BME280;29032;56.028;92.904;2023-10-08T14:52:53;99912.03;;;13.53;48.70
42887;BME280;29032;56.028;92.904;2023-10-08T14:57:56;99921.81;;;13.60;47.30
42887;BME280;29032;56.028;92.904;2023-10-08T15:02:59;99926.22;;;13.69;47.00
42887;BME280;29032;56.028;92.904;2023-10-08T15:08:01;99917.66;;;13.67;46.77
42887;BME280;29032;56.028;92.904;2023-10-08T15:13:04;99919.81;;;13.74;46.98
42887;BME280;29032;56.028;92.904;2023-10-08T15:18:08;99919.81;;;13.74;47.83
42887;BME280;29032;56.028;92.904;2023-10-08T15:23:10;99927.38;;;13.60;48.04
42887;BME280;29032;56.028;92.904;2023-10-08T15:28:12;99929.72;;;13.56;47.40
42887;BME280;29032;56.028;92.904;2023-10-08T15:33:15;99919.41;;;13.51;47.83
42887;BME280;29032;56.028;92.904;2023-10-08T15:38:17;99926.78;;;13.48;48.01
42887;BME280;29032;56.028;92.904;2023-10-08T15:43:19;99922.72;;;13.49;48.51
42887;BME280;29032;56.028;92.904;2023-10-08T15:48:23;99926.41;;;13.57;48.10
42887;BME280;29032;56.028;92.904;2023-10-08T15:53:25;99915.16;;;13.44;47.67
42887;BME280;29032;56.028;92.904;2023-10-08T15:58:27;99924.59;;;13.41;48.12
42887;BME280;29032;56.028;92.904;2023-10-08T16:03:31;99919.53;;;13.40;48.30
42887;BME280;29032;56.028;92.904;2023-10-08T16:08:33;99923.00;;;13.27;48.63
42887;BME280;29032;56.028;92.904;2023-10-08T16:13:35;99916.97;;;13.23;48.14
42887;BME280;29032;56.028;92.904;2023-10-08T16:18:39;99923.00;;;13.27;48.30
42887;BME280;29032;56.028;92.904;2023-10-08T16:23:41;99919.41;;;13.13;48.49
42887;BME280;29032;56.028;92.904;2023-10-08T16:28:43;99918.66;;;13.13;48.69
42887;BME280;29032;56.028;92.904;2023-10-08T16:33:46;99909.00;;;13.14;48.13
42887;BME280;29032;56.028;92.904;2023-10-08T16:38:48;99914.28;;;12.98;48.44
42887;BME280;29032;56.028;92.904;2023-10-08T16:43:50;99930.06;;;12.90;48.98
42887;BME280;29032;56.028;92.904;2023-10-08T16:48:54;99921.72;;;12.90;48.67
42887;BME280;29032;56.028;92.904;2023-10-08T16:53:56;99917.34;;;12.76;49.01
42887;BME280;29032;56.028;92.904;2023-10-08T16:58:58;99913.16;;;12.64;49.93
42887;BME280;29032;56.028;92.904;2023-10-08T17:04:02;99908.06;;;12.68;49.64
42887;BME280;29032;56.028;92.904;2023-10-08T17:09:04;99909.56;;;12.44;49.98
42887;BME280;29032;56.028;92.904;2023-10-08T17:14:06;99909.22;;;12.29;50.42
42887;BME280;29032;56.028;92.904;2023-10-08T17:19:10;99907.88;;;12.11;50.98
42887;BME280;29032;56.028;92.904;2023-10-08T17:24:12;99911.19;;;11.74;52.15
42887;BME280;29032;56.028;92.904;2023-10-08T17:29:14;99907.84;;;11.51;52.14
42887;BME280;29032;56.028;92.904;2023-10-08T17:34:18;99898.56;;;11.43;52.25
42887;BME280;29032;56.028;92.904;2023-10-08T17:39:20;99894.63;;;11.27;53.77
42887;BME280;29032;56.028;92.904;2023-10-08T17:44:22;99898.19;;;11.22;53.09
42887;BME280;29032;56.028;92.904;2023-10-08T17:49:25;99901.19;;;11.24;53.34
42887;BME280;29032;56.028;92.904;2023-10-08T17:54:27;99900.03;;;11.03;54.00
42887;BME280;29032;56.028;92.904;2023-10-08T17:59:30;99901.34;;;10.96;53.96
42887;BME280;29032;56.028;92.904;2023-10-08T18:04:38;99903.31;;;11.07;53.71
42887;BME280;29032;56.028;92.904;2023-10-08T18:09:40;99914.00;;;10.92;54.18
42887;BME280;29032;56.028;92.904;2023-10-08T18:14:42;99915.00;;;10.89;54.65
42887;BME280;29032;56.028;92.904;2023-10-08T18:19:45;99916.78;;;10.86;54.24
42887;BME280;29032;56.028;92.904;2023-10-08T18:24:47;99919.84;;;10.77;54.43
42887;BME280;29032;56.028;92.904;2023-10-08T18:29:49;99916.53;;;10.78;54.82
42887;BME280;29032;56.028;92.904;2023-10-08T18:34:53;99914.03;;;10.80;54.62
42887;BME280;29032;56.028;92.904;2023-10-08T18:39:55;99923.09;;;10.75;54.00
42887;BME280;29032;56.028;92.904;2023-10-08T18:44:57;99922.88;;;10.68;54.79
42887;BME280;29032;56.028;92.904;2023-10-08T18:50:01;99933.72;;;10.71;55.05
42887;BME280;29032;56.028;92.904;2023-10-08T18:55:04;99925.94;;;10.59;55.03
42887;BME280;29032;56.028;92.904;2023-10-08T19:00:07;99932.25;;;10.59;55.26
42887;BME280;29032;56.028;92.904;2023-10-08T19:05:11;99938.03;;;10.55;54.88
42887;BME280;29032;56.028;92.904;2023-10-08T19:10:13;99930.28;;;10.43;55.39
42887;BME280;29032;56.028;92.904;2023-10-08T19:15:15;99944.38;;;10.34;55.43
42887;BME280;29032;56.028;92.904;2023-10-08T19:20:19;99940.84;;;10.39;55.78
42887;BME280;29032;56.028;92.904;2023-10-08T19:25:21;99936.84;;;10.28;55.66
42887;BME280;29032;56.028;92.904;2023-10-08T19:30:23;99935.59;;;10.24;55.85
42887;BME280;29032;56.028;92.904;2023-10-08T19:35:27;99947.19;;;10.28;55.78
42887;BME280;29032;56.028;92.904;2023-10-08T19:40:29;99943.16;;;10.12;56.10
42887;BME280;29032;56.028;92.904;2023-10-08T19:45:34;99942.66;;;10.14;56.52
42887;BME280;29032;56.028;92.904;2023-10-08T19:50:40;99941.88;;;10.36;55.95
42887;BME280;29032;56.028;92.904;2023-10-08T19:55:43;99945.66;;;10.33;56.04
42887;BME280;29032;56.028;92.904;2023-10-08T20:00:47;99941.38;;;10.26;56.01
42887;BME280;29032;56.028;92.904;2023-10-08T20:05:51;99937.09;;;10.25;56.65
42887;BME280;29032;56.028;92.904;2023-10-08T20:10:53;99942.13;;;10.26;56.73
42887;BME280;29032;56.028;92.904;2023-10-08T20:15:55;99937.56;;;10.40;56.66
42887;BME280;29032;56.028;92.904;2023-10-08T20:20:58;99937.03;;;10.64;55.45
42887;BME280;29032;56.028;92.904;2023-10-08T20:26:09;99940.75;;;10.83;55.66
42887;BME280;29032;56.028;92.904;2023-10-08T20:31:12;99929.16;;;10.79;56.43
42887;BME280;29032;56.028;92.904;2023-10-08T20:36:15;99944.28;;;10.90;56.12
42887;BME280;29032;56.028;92.904;2023-10-08T20:41:18;99942.44;;;11.03;56.21
42887;BME280;29032;56.028;92.904;2023-10-08T20:46:20;99941.84;;;11.27;54.88
42887;BME280;29032;56.028;92.904;2023-10-08T20:51:24;99951.03;;;11.52;54.80
42887;BME280;29032;56.028;92.904;2023-10-08T20:56:26;99945.97;;;11.56;54.78
42887;BME280;29032;56.028;92.904;2023-10-08T21:01:29;99958.34;;;11.55;55.05
42887;BME280;29032;56.028;92.904;2023-10-08T21:06:33;99950.81;;;11.50;55.40
42887;BME280;29032;56.028;92.904;2023-10-08T21:11:35;99953.91;;;11.41;55.14
42887;BME280;29032;56.028;92.904;2023-10-08T21:16:37;99951.59;;;11.40;56.07
42887;BME280;29032;56.028;92.904;2023-10-08T21:21:41;99950.03;;;11.50;55.88
42887;BME280;29032;56.028;92.904;2023-10-08T21:26:43;99961.16;;;11.50;56.46
42887;BME280;29032;56.028;92.904;2023-10-08T21:31:45;99963.16;;;11.55;55.73
42887;BME280;29032;56.028;92.904;2023-10-08T21:36:49;99978.22;;;11.71;54.01
42887;BME280;29032;56.028;92.904;2023-10-08T21:41:51;99973.41;;;11.71;54.28
42887;BME280;29032;56.028;92.904;2023-10-08T21:46:53;99972.69;;;11.65;55.20
42887;BME280;29032;56.028;92.904;2023-10-08T21:51:56;99986.28;;;11.74;53.66
42887;BME280;29032;56.028;92.904;2023-10-08T21:56:58;99989.31;;;11.76;54.55
42887;BME280;29032;56.028;92.904;2023-10-08T22:02:00;99995.34;;;11.80;54.13
42887;BME280;29032;56.028;92.904;2023-10-08T22:07:04;99990.50;;;11.86;54.26
42887;BME280;29032;56.028;92.904;2023-10-08T22:12:06;99990.56;;;11.75;54.83
42887;BME280;29032;56.028;92.904;2023-10-08T22:17:08;99992.38;;;11.67;55.09
42887;BME280;29032;56.028;92.904;2023-10-08T22:22:12;99989.78;;;11.80;53.74
42887;BME280;29032;56.028;92.904;2023-10-08T22:27:15;99991.28;;;11.81;53.53
42887;BME280;29032;56.028;92.904;2023-10-08T22:32:17;99996.84;;;11.81;54.22
42887;BME280;29032;56.028;92.904;2023-10-08T22:37:21;100005.16;;;11.87;53.65
42887;BME280;29032;56.028;92.904;2023-10-08T22:42:23;100009.22;;;11.86;54.12
42887;BME280;29032;56.028;92.904;2023-10-08T22:47:25;100011.97;;;11.91;53.64
42887;BME280;29032;56.028;92.904;2023-10-08T22:52:28;100012.72;;;11.92;54.16
42887;BME280;29032;56.028;92.904;2023-10-08T22:57:30;100006.34;;;11.61;55.09
42887;BME280;29032;56.028;92.904;2023-10-08T23:02:32;99995.84;;;11.37;55.11
42887;BME280;29032;56.028;92.904;2023-10-08T23:07:36;100004.25;;;11.26;55.57
42887;BME280;29032;56.028;92.904;2023-10-08T23:12:38;100013.38;;;11.10;56.10
42887;BME280;29032;56.028;92.904;2023-10-08T23:17:40;100018.94;;;11.04;56.07
42887;BME280;29032;56.028;92.904;2023-10-08T23:22:44;100024.00;;;11.06;56.12
42887;BME280;29032;56.028;92.904;2023-10-08T23:27:46;100029.06;;;10.91;56.63
42887;BME280;29032;56.028;92.904;2023-10-08T23:32:48;100023.03;;;10.87;56.58
42887;BME280;29032;56.028;92.904;2023-10-08T23:37:53;100030.84;;;10.88;55.78
42887;BME280;29032;56.028;92.904;2023-10-08T23:42:55;100026.84;;;10.67;56.96
42887;BME280;29032;56.028;92.904;2023-10-08T23:47:58;100027.13;;;10.63;56.84
42887;BME280;29032;56.028;92.904;2023-10-08T23:53:01;100035.69;;;10.65;56.68
42887;BME280;29032;56.028;92.904;2023-10-08T23:58:04;100034.16;;;10.53;56.97
